Terminal Aerodrome Forecast
Issued by NWS

Home | Current Version | Previous Version | Text Only | Print | Product List | Glossary On
Versions: 1 2 3 4 5 6 7 8 9 10 11 12 13 14 15 16 17 18 19 20 21 22 23 24
000
FTUS45 KBOU 191140
TAFAPA
TAF
KAPA 191140Z 1912/2012 09007KT P6SM SCT120 BKN200
     FM191400 05011G18KT P6SM FEW080 BKN110 BKN200
     FM191600 07012KT P6SM SCT070 BKN110 BKN160
     FM191800 09011KT P6SM VCSH SCT070 BKN100 OVC140
     FM192100 11010KT P6SM VCSH SCT060 BKN080 OVC120
      TEMPO 1922/2002 VRB18G35KT -TSRA BKN050CB
     FM200500 16008KT P6SM SCT070 BKN110
     FM200800 19012KT P6SM SCT080 BKN120=

USA.gov is the U.S. government's official web portal to all federal, state and local government web resources and services.